| ตารางข้อมูล | TH20402 | TH4529A | TH4529D | TH814 | ค้นข้อมูล1 | ค้นข้อมูล2 | ค่าสูงสุด-ต่ำสุด |  

Select Sensor -->| 20402 | 4529A | 4529D | 814 | 824 | 834 | 844 | หน้าจอย่อ | 4529 |
Data of room  824

IDRoomDate  Temp  Humidity
 14718  824  2021-05-08 09:53:21  36.8  64.6 
 14717  824  2021-05-08 09:53:07  32.7  73.9 
 14715  824  2021-05-08 09:49:24  32.8  72.2 
 13136  824  2021-05-02 21:56:22  31.5  75.5 
 13133  824  2021-05-02 21:47:12  31.6  75.0 
 13132  824  2021-05-02 21:42:09  31.8  74.6 
 13129  824  2021-05-02 21:37:07  31.8  74.8 
 13123  824  2021-05-02 21:17:42  31.8  74.5 
 13120  824  2021-05-02 21:14:24  31.9  73.7 
 13119  824  2021-05-02 21:09:22  31.8  74.4 
 13111  824  2021-05-02 20:54:05  31.9  73.2 
 13107  824  2021-05-02 20:49:02  31.9  73.3 
 13104  824  2021-05-02 20:46:30  32.0  72.6 
 13103  824  2021-05-02 20:44:28  32.1  72.4 
 13102  824  2021-05-02 20:40:17  32.1  72.6 
 13100  824  2021-05-02 20:38:14  31.9  72.9 
 13098  824  2021-05-02 20:36:12  31.8  73.1 
 13097  824  2021-05-02 20:34:10  31.6  74.1 
 13096  824  2021-05-02 20:32:07  31.2  75.1 
 13095  824  2021-05-02 20:30:05  31.3  74.9 
 13093  824  2021-05-02 20:28:02  31.3  74.9 
 13091  824  2021-05-02 20:26:05  31.3  74.8 
 13090  824  2021-05-02 20:24:03  31.2  74.7 
 13089  824  2021-05-02 20:22:01  31.2  74.8 
 13088  824  2021-05-02 20:19:58  31.1  75.0 
 13086  824  2021-05-02 20:17:56  31.0  74.8 
 13084  824  2021-05-02 20:15:53  30.9  75.2 
 13083  824  2021-05-02 20:13:51  30.6  76.3 
 13082  824  2021-05-02 20:11:49  30.5  76.7 
 12731  824  2021-05-01 15:02:31  31.1  77.3 
 12730  824  2021-05-01 15:00:29  31.1  77.5 
 12729  824  2021-05-01 14:58:27  31.1  77.7 
 12728  824  2021-05-01 14:56:24  31.1  78.5 
 12726  824  2021-05-01 14:54:22  31.1  78.6 
 12724  824  2021-05-01 14:52:20  31.1  78.8 
 12723  824  2021-05-01 14:50:17  31.2  78.9 
 12721  824  2021-05-01 14:48:15  31.1  79.0 
 12720  824  2021-05-01 14:46:13  31.2  78.9 
 12719  824  2021-05-01 14:44:10  31.2  79.1 
 12717  824  2021-05-01 14:42:08  31.2  79.3 
 12716  824  2021-05-01 14:40:06  31.3  79.0 
 12715  824  2021-05-01 14:38:03  31.2  78.9 
 12714  824  2021-05-01 14:36:01  31.2  79.0 
 12711  824  2021-05-01 14:33:59  31.3  79.1 
 12710  824  2021-05-01 14:31:56  31.3  79.1 
 12709  824  2021-05-01 14:29:54  31.3  79.1 
 12707  824  2021-05-01 14:27:52  31.3  79.0 
 12706  824  2021-05-01 14:25:49  31.3  79.1 
 12705  824  2021-05-01 14:23:47  31.4  78.8 
 12703  824  2021-05-01 14:21:45  31.7  77.8 
 12702  824  2021-05-01 14:19:42  32.3  76.0 
 12701  824  2021-05-01 14:17:40  32.3  76.0 
 12700  824  2021-05-01 14:16:39  32.2  79.6 

Data every 20 minute.


Data of room  824


Data every 20 minute.

  Show Graph